createdAt,value
2019-02-06T00:00:33.463Z,86.44
2019-02-06T00:02:42.293Z,86.43
2019-02-06T00:04:54.288Z,86.48
2019-02-06T00:07:02.375Z,86.34
2019-02-06T00:09:12.706Z,86.20
2019-02-06T00:11:19.119Z,86.15
2019-02-06T00:13:25.805Z,86.33
2019-02-06T00:15:32.562Z,86.29
2019-02-06T00:17:39.232Z,86.28
2019-02-06T00:19:46.820Z,86.10
2019-02-06T00:21:53.520Z,86.14
2019-02-06T00:23:59.907Z,86.16
2019-02-06T00:26:06.731Z,86.14
2019-02-06T00:28:13.054Z,86.08
2019-02-06T00:30:22.335Z,86.16
2019-02-06T00:32:28.720Z,86.32
2019-02-06T00:34:35.018Z,86.46
2019-02-06T00:36:41.614Z,86.47
2019-02-06T00:38:48.294Z,86.37
2019-02-06T00:40:54.638Z,86.44
2019-02-06T00:43:01.556Z,86.49
2019-02-06T00:45:26.819Z,86.44
2019-02-06T00:47:33.334Z,86.47
2019-02-06T00:49:43.100Z,86.39
2019-02-06T00:51:51.087Z,86.48
2019-02-06T00:53:57.678Z,86.36
2019-02-06T00:56:04.219Z,86.62
2019-02-06T00:58:10.615Z,86.59
2019-02-06T01:00:23.599Z,86.69
2019-02-06T01:02:30.195Z,86.71
2019-02-06T01:04:36.589Z,86.69
2019-02-06T01:06:43.139Z,86.77
2019-02-06T01:08:49.770Z,86.75
2019-02-06T01:10:56.283Z,86.86
2019-02-06T01:13:03.126Z,86.77
2019-02-06T01:15:11.527Z,86.83
2019-02-06T01:17:17.991Z,86.79
2019-02-06T01:19:24.466Z,86.99
2019-02-06T01:21:32.142Z,87.05
2019-02-06T01:23:38.620Z,87.06
2019-02-06T01:25:45.096Z,87.09
2019-02-06T01:27:51.458Z,87.29
2019-02-06T01:29:57.821Z,87.19
2019-02-06T01:32:04.877Z,87.37
2019-02-06T01:34:11.155Z,87.29
2019-02-06T01:36:17.845Z,87.27
2019-02-06T01:38:25.024Z,87.38
2019-02-06T01:40:31.887Z,87.38
2019-02-06T01:42:38.254Z,87.31
2019-02-06T01:44:44.811Z,87.30
2019-02-06T01:46:51.170Z,87.28
2019-02-06T01:48:57.633Z,87.26
2019-02-06T01:51:04.203Z,87.29
2019-02-06T01:53:10.868Z,87.45
2019-02-06T01:55:17.905Z,87.50
2019-02-06T01:57:27.242Z,87.64
2019-02-06T01:59:39.405Z,87.67
2019-02-06T02:01:52.015Z,87.73
2019-02-06T02:04:00.002Z,87.66
2019-02-06T02:06:10.067Z,87.60
2019-02-06T02:08:18.128Z,87.76
2019-02-06T02:10:24.909Z,87.59
2019-02-06T02:12:31.285Z,87.54
2019-02-06T02:14:38.040Z,87.59
2019-02-06T02:16:44.410Z,87.67
2019-02-06T02:18:50.763Z,87.62
2019-02-06T02:20:57.414Z,87.68
2019-02-06T02:23:03.802Z,87.70
2019-02-06T02:25:10.519Z,87.55
2019-02-06T02:27:16.839Z,87.61
2019-02-06T02:29:23.116Z,87.55
2019-02-06T02:31:29.777Z,87.63
2019-02-06T02:33:37.764Z,87.56
2019-02-06T02:35:44.214Z,87.63
2019-02-06T02:37:50.616Z,87.64
2019-02-06T02:39:57.520Z,87.64
2019-02-06T02:42:05.278Z,87.62
2019-02-06T02:44:13.527Z,87.66
2019-02-06T02:46:20.852Z,87.61
2019-02-06T02:48:27.114Z,87.58
2019-02-06T02:50:33.466Z,87.56
2019-02-06T02:52:40.358Z,87.52
2019-02-06T02:54:46.719Z,87.55
2019-02-06T02:56:52.976Z,87.58
2019-02-06T02:58:59.223Z,87.59
2019-02-06T03:01:10.499Z,87.71
2019-02-06T03:03:34.600Z,87.63
2019-02-06T03:05:40.937Z,87.55
2019-02-06T03:07:47.216Z,87.58
2019-02-06T03:09:53.683Z,87.63
2019-02-06T03:12:00.059Z,87.57
2019-02-06T03:14:06.630Z,87.64
2019-02-06T03:16:12.973Z,87.60
2019-02-06T03:18:19.321Z,87.49
2019-02-06T03:20:25.703Z,87.60
2019-02-06T03:22:33.009Z,87.66
2019-02-06T03:24:39.562Z,87.68
2019-02-06T03:26:46.224Z,87.59
2019-02-06T03:28:52.471Z,87.67
2019-02-06T03:30:59.034Z,87.67
2019-02-06T03:33:05.598Z,87.67
2019-02-06T03:35:12.279Z,87.66
2019-02-06T03:37:19.172Z,87.76
2019-02-06T03:39:25.412Z,87.86
2019-02-06T03:41:32.242Z,87.86
2019-02-06T03:43:38.545Z,87.97
2019-02-06T03:45:45.126Z,87.76
2019-02-06T03:47:52.113Z,87.87
2019-02-06T03:49:58.969Z,87.90
2019-02-06T03:52:06.127Z,87.96
2019-02-06T03:54:13.268Z,87.94
2019-02-06T03:56:20.128Z,87.90
2019-02-06T03:58:26.608Z,87.95
2019-02-06T04:00:34.397Z,87.99
2019-02-06T04:02:42.694Z,88.06
2019-02-06T04:04:49.551Z,88.07
2019-02-06T04:07:01.049Z,88.09
2019-02-06T04:09:05.439Z,88.19
2019-02-06T04:11:11.721Z,88.15
2019-02-06T04:13:18.078Z,88.25
2019-02-06T04:15:24.670Z,88.28
2019-02-06T04:17:30.995Z,88.28
2019-02-06T04:19:42.099Z,88.36
2019-02-06T04:21:48.009Z,88.40
2019-02-06T04:23:55.199Z,88.34
2019-02-06T04:26:05.327Z,88.31
2019-02-06T04:28:15.559Z,88.30
2019-02-06T04:30:25.805Z,88.30
2019-02-06T04:32:38.167Z,88.37
2019-02-06T04:34:44.629Z,88.44
2019-02-06T04:36:51.202Z,88.36
2019-02-06T04:38:57.973Z,88.36
2019-02-06T04:41:04.347Z,88.52
2019-02-06T04:43:10.684Z,88.46
2019-02-06T04:45:19.884Z,88.45
2019-02-06T04:47:26.573Z,88.43
2019-02-06T04:49:32.862Z,88.51
2019-02-06T04:51:39.620Z,88.46
2019-02-06T04:53:49.190Z,88.41
2019-02-06T04:55:56.448Z,88.45
2019-02-06T04:58:03.125Z,88.48
2019-02-06T05:00:25.615Z,88.43
2019-02-06T05:02:33.348Z,88.39
2019-02-06T05:04:39.619Z,88.44
2019-02-06T05:06:45.976Z,88.59
2019-02-06T05:08:57.875Z,88.70
2019-02-06T05:11:08.281Z,88.68
2019-02-06T05:13:23.850Z,88.67
2019-02-06T05:15:31.912Z,88.64
2019-02-06T05:17:39.693Z,88.49
2019-02-06T05:19:48.457Z,88.58
2019-02-06T05:21:56.545Z,88.62
2019-02-06T05:24:09.459Z,88.81
2019-02-06T05:26:16.187Z,88.88
2019-02-06T05:28:22.462Z,88.93
2019-02-06T05:30:28.938Z,89.24
2019-02-06T05:32:35.205Z,89.15
2019-02-06T05:34:41.658Z,89.15
2019-02-06T05:36:51.004Z,89.18
2019-02-06T05:38:56.519Z,89.29
2019-02-06T05:41:03.615Z,89.25
2019-02-06T05:43:09.955Z,89.21
2019-02-06T05:45:16.825Z,89.09
2019-02-06T05:47:23.219Z,88.93
2019-02-06T05:49:29.672Z,89.00
2019-02-06T05:51:36.656Z,88.91
2019-02-06T05:53:43.016Z,88.74
2019-02-06T05:55:49.258Z,88.66
2019-02-06T05:57:55.738Z,88.60
2019-02-06T06:00:02.298Z,88.60
2019-02-06T06:02:10.093Z,88.70
2019-02-06T06:04:17.052Z,89.01
2019-02-06T06:06:23.337Z,89.36
2019-02-06T06:08:29.909Z,89.67
2019-02-06T06:10:36.480Z,89.86
2019-02-06T06:12:47.274Z,89.97
2019-02-06T06:15:00.453Z,90.37
2019-02-06T06:17:08.453Z,90.46
2019-02-06T06:19:15.375Z,90.66
2019-02-06T06:21:22.580Z,91.17
2019-02-06T06:23:33.454Z,91.81
2019-02-06T06:25:44.170Z,92.37
2019-02-06T06:27:55.709Z,91.65
2019-02-06T06:30:05.799Z,90.69
2019-02-06T06:32:14.599Z,90.15
2019-02-06T06:34:21.471Z,87.83
2019-02-06T06:36:27.840Z,88.51
2019-02-06T06:38:36.747Z,88.23
2019-02-06T06:40:44.369Z,88.55
2019-02-06T06:42:50.619Z,86.54
2019-02-06T06:44:57.496Z,88.94
2019-02-06T06:47:03.970Z,85.29
2019-02-06T06:49:10.310Z,85.35
2019-02-06T06:51:16.562Z,85.44
2019-02-06T06:53:22.831Z,85.91
2019-02-06T06:55:29.191Z,86.42
2019-02-06T06:57:36.054Z,86.65
2019-02-06T06:59:42.703Z,86.85
2019-02-06T07:01:49.099Z,87.05
2019-02-06T07:03:55.469Z,87.34
2019-02-06T07:06:01.837Z,87.42
2019-02-06T07:08:13.254Z,87.39
2019-02-06T07:10:18.424Z,87.64
2019-02-06T07:12:24.840Z,87.38
2019-02-06T07:14:31.171Z,87.16
2019-02-06T07:16:37.765Z,86.49
2019-02-06T07:18:44.000Z,86.54
2019-02-06T07:20:50.368Z,86.25
2019-02-06T07:22:56.945Z,86.19
2019-02-06T07:25:03.287Z,86.15
2019-02-06T07:27:09.958Z,85.67
2019-02-06T07:29:16.213Z,85.70
2019-02-06T07:31:22.595Z,85.44
2019-02-06T07:33:28.846Z,85.31
2019-02-06T07:35:35.206Z,85.20
2019-02-06T07:37:41.661Z,84.87
2019-02-06T07:39:47.864Z,84.86
2019-02-06T07:41:54.380Z,84.75
2019-02-06T07:44:00.867Z,84.55
2019-02-06T07:46:07.841Z,84.60
2019-02-06T07:48:14.518Z,84.04
2019-02-06T07:50:30.497Z,83.67
2019-02-06T07:52:37.173Z,83.80
2019-02-06T07:54:43.602Z,83.63
2019-02-06T07:56:50.010Z,83.68
2019-02-06T07:58:56.569Z,83.37
2019-02-06T08:01:02.836Z,83.70
2019-02-06T08:03:09.696Z,83.60
2019-02-06T08:05:20.317Z,83.57
2019-02-06T08:07:28.059Z,83.83
2019-02-06T08:09:34.708Z,83.38
2019-02-06T08:11:41.817Z,83.59
2019-02-06T08:13:48.068Z,85.03
2019-02-06T08:15:54.541Z,86.58
2019-02-06T08:18:00.988Z,83.10
2019-02-06T08:20:12.063Z,81.28
2019-02-06T08:22:18.549Z,82.77
2019-02-06T08:24:24.890Z,81.25
2019-02-06T08:26:31.603Z,80.70
2019-02-06T08:28:38.458Z,81.67
2019-02-06T08:30:47.087Z,80.37
2019-02-06T08:32:54.699Z,78.63
2019-02-06T08:35:01.785Z,79.74
2019-02-06T08:37:08.659Z,78.56
2019-02-06T08:39:15.116Z,80.19
2019-02-06T08:41:22.514Z,78.74
2019-02-06T08:43:29.556Z,79.28
2019-02-06T08:45:37.620Z,79.97
2019-02-06T08:47:45.299Z,79.02
2019-02-06T08:49:53.537Z,79.93
2019-02-06T08:52:00.408Z,79.16
2019-02-06T08:54:07.466Z,79.37
2019-02-06T08:56:15.700Z,79.30
2019-02-06T08:58:22.506Z,78.78
2019-02-06T09:00:35.500Z,79.28
2019-02-06T09:02:44.783Z,78.63
2019-02-06T09:04:55.994Z,78.63
2019-02-06T09:07:01.466Z,78.04
2019-02-06T09:09:10.846Z,78.18
2019-02-06T09:11:17.895Z,77.21
2019-02-06T09:13:25.661Z,77.72
2019-02-06T09:15:32.627Z,76.84
2019-02-06T09:17:39.648Z,77.03
2019-02-06T09:19:46.223Z,77.09
2019-02-06T09:21:53.326Z,77.03
2019-02-06T09:24:00.257Z,76.65
2019-02-06T09:26:07.836Z,76.26
2019-02-06T09:28:14.529Z,76.36
2019-02-06T09:30:26.807Z,76.98
2019-02-06T09:32:33.724Z,76.97
2019-02-06T09:34:40.746Z,77.93
2019-02-06T09:36:47.753Z,76.54
2019-02-06T09:38:55.227Z,77.07
2019-02-06T09:41:02.144Z,77.58
2019-02-06T09:43:08.987Z,78.38
2019-02-06T09:45:17.534Z,78.54
2019-02-06T09:47:23.989Z,79.07
2019-02-06T09:49:30.888Z,78.68
2019-02-06T09:51:40.375Z,78.57
2019-02-06T09:53:48.575Z,78.70
2019-02-06T09:55:55.433Z,77.96
2019-02-06T09:58:02.633Z,78.18
2019-02-06T10:00:19.396Z,77.98
2019-02-06T10:02:26.678Z,77.20
2019-02-06T10:04:34.933Z,77.50
2019-02-06T10:06:42.202Z,77.18
2019-02-06T10:08:50.514Z,77.44
2019-02-06T10:10:57.267Z,77.12
2019-02-06T10:13:04.478Z,76.79
2019-02-06T10:15:15.254Z,76.66
2019-02-06T10:17:23.759Z,76.32
2019-02-06T10:19:31.807Z,77.09
2019-02-06T10:21:38.956Z,77.19
2019-02-06T10:23:45.853Z,77.31
2019-02-06T10:25:53.957Z,77.62
2019-02-06T10:28:01.611Z,77.63
2019-02-06T10:30:25.503Z,78.23
2019-02-06T10:32:32.986Z,78.11
2019-02-06T10:34:39.793Z,78.58
2019-02-06T10:36:47.014Z,78.27
2019-02-06T10:38:54.157Z,78.33
2019-02-06T10:41:00.848Z,78.24
2019-02-06T10:43:08.349Z,78.30
2019-02-06T10:45:21.276Z,78.11
2019-02-06T10:47:28.365Z,78.07
2019-02-06T10:49:35.324Z,77.51
2019-02-06T10:51:42.986Z,77.49
2019-02-06T10:53:49.963Z,77.16
2019-02-06T10:55:56.728Z,76.69
2019-02-06T10:58:03.850Z,75.43
2019-02-06T11:00:20.997Z,75.67
2019-02-06T11:02:28.238Z,75.37
2019-02-06T11:04:35.196Z,74.01
2019-02-06T11:06:42.233Z,74.16
2019-02-06T11:08:48.924Z,73.84
2019-02-06T11:10:57.435Z,73.89
2019-02-06T11:13:07.057Z,74.66
2019-02-06T11:15:14.927Z,74.13
2019-02-06T11:17:21.563Z,74.54
2019-02-06T11:19:28.486Z,75.51
2019-02-06T11:21:37.115Z,75.62
2019-02-06T11:23:44.253Z,74.69
2019-02-06T11:25:50.998Z,75.42
2019-02-06T11:27:59.687Z,74.41
2019-02-06T11:30:10.804Z,72.85
2019-02-06T11:32:18.824Z,72.63
2019-02-06T11:34:25.522Z,71.71
2019-02-06T11:36:32.432Z,71.72
2019-02-06T11:38:39.441Z,70.81
2019-02-06T11:40:46.497Z,70.47
2019-02-06T11:42:55.336Z,70.60
2019-02-06T11:45:01.837Z,70.73
2019-02-06T11:47:09.106Z,68.44
2019-02-06T11:49:16.837Z,68.71
2019-02-06T11:51:24.541Z,68.50
2019-02-06T11:53:31.667Z,68.99
2019-02-06T11:55:38.717Z,69.63
2019-02-06T11:57:45.714Z,68.53
2019-02-06T11:59:53.216Z,68.50
2019-02-06T12:02:01.576Z,68.95
2019-02-06T12:04:09.259Z,68.53
2019-02-06T12:06:16.603Z,67.77
2019-02-06T12:08:23.276Z,67.61
2019-02-06T12:10:31.856Z,67.48
2019-02-06T12:12:38.667Z,67.99
2019-02-06T12:14:45.513Z,67.75
2019-02-06T12:16:52.506Z,67.46
2019-02-06T12:18:59.671Z,67.61
2019-02-06T12:21:06.536Z,66.92
2019-02-06T12:23:13.356Z,67.33
2019-02-06T12:25:20.985Z,67.27
2019-02-06T12:27:27.926Z,66.67
2019-02-06T12:29:36.774Z,66.42
2019-02-06T12:31:45.358Z,66.58
2019-02-06T12:33:52.216Z,67.39
2019-02-06T12:35:59.686Z,66.79
2019-02-06T12:38:07.393Z,66.57
2019-02-06T12:40:21.793Z,67.77
2019-02-06T12:42:24.117Z,67.86
2019-02-06T12:44:31.185Z,67.36
2019-02-06T12:46:38.496Z,66.55
2019-02-06T12:48:46.847Z,66.82
2019-02-06T12:50:54.272Z,66.51
2019-02-06T12:53:01.385Z,66.50
2019-02-06T12:55:15.011Z,65.77
2019-02-06T12:57:21.924Z,65.46
2019-02-06T12:59:28.796Z,65.80
2019-02-06T13:01:36.934Z,64.92
2019-02-06T13:03:43.724Z,65.92
2019-02-06T13:05:51.608Z,65.74
2019-02-06T13:07:58.977Z,66.59
2019-02-06T13:10:08.633Z,67.01
2019-02-06T13:12:16.769Z,66.01
2019-02-06T13:14:23.887Z,65.76
2019-02-06T13:16:31.809Z,66.47
2019-02-06T13:18:39.086Z,65.79
2019-02-06T13:20:45.965Z,64.98
2019-02-06T13:22:54.682Z,64.72
2019-02-06T13:25:03.506Z,64.81
2019-02-06T13:27:10.055Z,64.39
2019-02-06T13:29:16.706Z,64.84
2019-02-06T13:31:23.669Z,64.05
2019-02-06T13:33:30.854Z,63.84
2019-02-06T13:35:38.666Z,65.12
2019-02-06T13:37:45.676Z,63.87
2019-02-06T13:39:52.766Z,63.94
2019-02-06T13:42:05.289Z,64.01
2019-02-06T13:44:10.773Z,63.78
2019-02-06T13:46:20.047Z,64.26
2019-02-06T13:48:27.076Z,64.92
2019-02-06T13:50:34.066Z,64.41
2019-02-06T13:52:45.430Z,65.47
2019-02-06T13:54:52.574Z,64.22
2019-02-06T13:56:59.375Z,66.31
2019-02-06T13:59:07.392Z,65.97
2019-02-06T14:01:25.456Z,64.78
2019-02-06T14:03:23.693Z,64.59
2019-02-06T14:05:33.118Z,65.82
2019-02-06T14:07:40.127Z,66.13
2019-02-06T14:09:46.987Z,67.17
2019-02-06T14:11:55.636Z,67.01
2019-02-06T14:14:05.846Z,67.66
2019-02-06T14:16:13.874Z,67.27
2019-02-06T14:18:22.613Z,67.09
2019-02-06T14:20:29.627Z,67.03
2019-02-06T14:22:36.505Z,67.40
2019-02-06T14:24:47.260Z,67.42
2019-02-06T14:27:01.223Z,68.25
2019-02-06T14:29:37.750Z,68.16
2019-02-06T14:32:07.414Z,67.99
2019-02-06T14:34:39.372Z,68.31
2019-02-06T14:37:17.486Z,68.61
2019-02-06T14:39:47.273Z,68.59
2019-02-06T14:42:22.493Z,68.28
2019-02-06T14:44:54.946Z,68.71
2019-02-06T14:47:17.326Z,68.90
2019-02-06T14:49:35.715Z,69.52
2019-02-06T14:52:11.036Z,69.87
2019-02-06T14:54:48.024Z,70.22
2019-02-06T14:57:26.886Z,71.85
2019-02-06T14:59:56.794Z,70.83
2019-02-06T15:02:45.122Z,71.31
2019-02-06T15:05:00.968Z,71.73
2019-02-06T15:07:34.734Z,72.23
2019-02-06T15:10:06.883Z,72.43
2019-02-06T15:12:24.056Z,73.11
2019-02-06T15:14:46.523Z,73.71
2019-02-06T15:17:33.724Z,74.21
2019-02-06T15:20:13.551Z,74.37
2019-02-06T15:22:24.925Z,74.51
2019-02-06T15:24:38.686Z,74.23
2019-02-06T15:27:16.719Z,74.37
2019-02-06T15:29:33.779Z,74.20
2019-02-06T15:32:04.273Z,73.97
2019-02-06T15:34:20.425Z,74.18
2019-02-06T15:36:36.851Z,74.78
2019-02-06T15:38:51.193Z,74.72
2019-02-06T15:41:31.302Z,74.94
2019-02-06T15:43:45.356Z,75.33
2019-02-06T15:46:25.040Z,75.92
2019-02-06T15:48:51.059Z,76.01
2019-02-06T15:51:26.311Z,76.51
2019-02-06T15:53:55.579Z,76.67
2019-02-06T15:56:24.487Z,76.91
2019-02-06T15:58:48.118Z,77.38
2019-02-06T16:01:31.999Z,77.66
2019-02-06T16:04:20.658Z,77.89
2019-02-06T16:06:54.701Z,78.22
2019-02-06T16:09:21.199Z,78.51
2019-02-06T16:11:50.442Z,78.75
2019-02-06T16:14:23.271Z,78.99
2019-02-06T16:16:41.979Z,79.34
2019-02-06T16:18:58.880Z,79.58
2019-02-06T16:21:15.999Z,79.67
2019-02-06T16:23:45.389Z,79.96
2019-02-06T16:26:31.441Z,80.06
2019-02-06T16:28:45.592Z,79.75
2019-02-06T16:31:14.694Z,80.10
2019-02-06T16:34:24.724Z,80.17
2019-02-06T16:36:36.221Z,80.61
2019-02-06T16:39:13.079Z,80.42
2019-02-06T16:41:53.069Z,80.53
2019-02-06T16:44:17.948Z,80.63
2019-02-06T16:46:47.539Z,80.77
2019-02-06T16:49:48.799Z,80.85
2019-02-06T16:52:08.577Z,80.99
2019-02-06T16:54:32.880Z,80.95
2019-02-06T16:57:08.528Z,80.85
2019-02-06T16:59:42.307Z,80.74
2019-02-06T17:01:56.963Z,80.13
2019-02-06T17:04:33.647Z,80.15
2019-02-06T17:06:50.605Z,80.11
2019-02-06T17:09:08.097Z,80.00
2019-02-06T17:11:32.340Z,80.21
2019-02-06T17:13:46.413Z,80.58
2019-02-06T17:16:15.716Z,80.56
2019-02-06T17:19:04.745Z,80.86
2019-02-06T17:21:18.565Z,80.99
2019-02-06T17:23:47.694Z,81.09
2019-02-06T17:26:07.916Z,81.31
2019-02-06T17:28:31.165Z,81.58
2019-02-06T17:30:53.975Z,81.73
2019-02-06T17:33:37.136Z,81.97
2019-02-06T17:36:13.922Z,82.24
2019-02-06T17:38:47.085Z,82.45
2019-02-06T17:41:17.388Z,82.65
2019-02-06T17:44:02.282Z,82.73
2019-02-06T17:46:20.673Z,82.89
2019-02-06T17:49:06.465Z,82.92
2019-02-06T17:51:47.365Z,83.14
2019-02-06T17:53:58.776Z,82.94
2019-02-06T17:56:06.278Z,83.04
2019-02-06T17:58:13.773Z,82.94
2019-02-06T18:00:40.734Z,82.94
2019-02-06T18:02:48.123Z,82.92
2019-02-06T18:04:55.196Z,82.76
2019-02-06T18:07:02.566Z,82.62
2019-02-06T18:09:14.269Z,82.54
2019-02-06T18:11:21.454Z,82.48
2019-02-06T18:13:29.042Z,82.52
2019-02-06T18:15:36.235Z,82.56
2019-02-06T18:17:43.645Z,82.56
2019-02-06T18:19:50.795Z,82.61
2019-02-06T18:22:09.513Z,82.58
2019-02-06T18:24:37.877Z,82.32
2019-02-06T18:26:54.648Z,82.18
2019-02-06T18:29:11.633Z,82.19
2019-02-06T18:31:31.560Z,82.24
2019-02-06T18:33:41.516Z,82.38
2019-02-06T18:35:50.857Z,82.57
2019-02-06T18:37:58.495Z,82.67
2019-02-06T18:40:08.861Z,82.68
2019-02-06T18:42:15.993Z,82.51
2019-02-06T18:44:28.420Z,82.40
2019-02-06T18:46:39.367Z,82.40
2019-02-06T18:48:47.694Z,82.15
2019-02-06T18:50:55.815Z,81.92
2019-02-06T18:53:05.253Z,81.65
2019-02-06T18:55:13.171Z,81.71
2019-02-06T18:57:20.371Z,81.60
2019-02-06T18:59:28.030Z,81.32
2019-02-06T19:01:35.371Z,81.37
2019-02-06T19:03:45.231Z,81.43
2019-02-06T19:05:52.548Z,81.49
2019-02-06T19:08:01.347Z,81.47
2019-02-06T19:10:15.989Z,81.24
2019-02-06T19:12:25.360Z,81.27
2019-02-06T19:14:32.638Z,81.32
2019-02-06T19:16:40.030Z,81.41
2019-02-06T19:18:47.233Z,81.08
2019-02-06T19:20:54.887Z,81.07
2019-02-06T19:23:02.517Z,81.08
2019-02-06T19:25:13.698Z,80.59
2019-02-06T19:27:21.350Z,80.67
2019-02-06T19:29:28.901Z,80.48
2019-02-06T19:31:36.558Z,80.46
2019-02-06T19:33:45.061Z,80.56
2019-02-06T19:35:52.514Z,80.55
2019-02-06T19:37:59.994Z,80.34
2019-02-06T19:40:18.234Z,80.37
2019-02-06T19:42:25.679Z,80.43
2019-02-06T19:44:33.496Z,80.18
2019-02-06T19:46:40.996Z,79.78
2019-02-06T19:48:49.511Z,79.79
2019-02-06T19:50:57.271Z,79.69
2019-02-06T19:53:06.359Z,79.88
2019-02-06T19:55:16.552Z,79.71
2019-02-06T19:57:26.062Z,78.99
2019-02-06T19:59:33.760Z,78.79
2019-02-06T20:01:41.232Z,78.75
2019-02-06T20:03:49.191Z,79.12
2019-02-06T20:05:57.151Z,79.08
2019-02-06T20:08:04.951Z,79.02
2019-02-06T20:10:22.274Z,78.60
2019-02-06T20:12:31.231Z,78.66
2019-02-06T20:14:38.831Z,78.62
2019-02-06T20:16:47.351Z,78.08
2019-02-06T20:18:55.278Z,78.15
2019-02-06T20:21:03.838Z,78.58
2019-02-06T20:23:12.193Z,78.43
2019-02-06T20:25:20.398Z,78.66
2019-02-06T20:27:29.120Z,78.38
2019-02-06T20:29:36.511Z,78.23
2019-02-06T20:31:45.552Z,78.02
2019-02-06T20:33:53.687Z,78.06
2019-02-06T20:36:02.321Z,77.76
2019-02-06T20:38:09.966Z,78.14
2019-02-06T20:40:45.271Z,78.94
2019-02-06T20:42:52.798Z,78.13
2019-02-06T20:45:00.338Z,78.20
2019-02-06T20:47:07.686Z,77.50
2019-02-06T20:49:15.512Z,77.49
2019-02-06T20:51:23.352Z,78.31
2019-02-06T20:53:31.078Z,77.31
2019-02-06T20:55:39.318Z,77.75
2019-02-06T20:57:46.631Z,77.58
2019-02-06T20:59:55.999Z,77.79
2019-02-06T21:02:04.035Z,78.07
2019-02-06T21:04:11.757Z,77.67
2019-02-06T21:06:18.858Z,78.34
2019-02-06T21:08:26.627Z,78.07
2019-02-06T21:10:38.009Z,78.50
2019-02-06T21:12:45.766Z,77.63
2019-02-06T21:14:53.437Z,78.06
2019-02-06T21:17:02.576Z,77.84
2019-02-06T21:19:10.267Z,77.98
2019-02-06T21:21:17.395Z,77.83
2019-02-06T21:23:26.455Z,78.31
2019-02-06T21:25:33.645Z,78.67
2019-02-06T21:27:40.821Z,77.96
2019-02-06T21:29:48.238Z,78.36
2019-02-06T21:31:57.110Z,78.67
2019-02-06T21:34:06.149Z,78.75
2019-02-06T21:36:14.032Z,79.21
2019-02-06T21:38:21.346Z,79.13
2019-02-06T21:40:31.748Z,79.21
2019-02-06T21:42:38.986Z,79.91
2019-02-06T21:44:45.957Z,79.40
2019-02-06T21:46:53.366Z,79.66
2019-02-06T21:49:00.725Z,79.99
2019-02-06T21:51:07.866Z,79.80
2019-02-06T21:53:15.106Z,79.61
2019-02-06T21:55:28.865Z,79.86
2019-02-06T21:57:36.492Z,80.38
2019-02-06T21:59:43.845Z,80.29
2019-02-06T22:01:51.028Z,80.72
2019-02-06T22:03:59.025Z,80.80
2019-02-06T22:06:06.247Z,81.11
2019-02-06T22:08:14.425Z,80.52
2019-02-06T22:10:23.366Z,80.49
2019-02-06T22:12:30.506Z,80.53
2019-02-06T22:14:38.206Z,80.21
2019-02-06T22:16:46.225Z,80.25
2019-02-06T22:18:53.473Z,80.51
2019-02-06T22:21:00.544Z,80.46
2019-02-06T22:23:08.530Z,81.22
2019-02-06T22:25:15.729Z,80.94
2019-02-06T22:27:22.809Z,80.63
2019-02-06T22:29:30.098Z,81.03
2019-02-06T22:31:36.769Z,80.51
2019-02-06T22:33:43.452Z,80.56
2019-02-06T22:35:51.252Z,80.98
2019-02-06T22:37:58.945Z,81.02
2019-02-06T22:40:12.194Z,80.96
2019-02-06T22:42:19.331Z,81.04
2019-02-06T22:44:27.483Z,80.54
2019-02-06T22:46:34.450Z,80.86
2019-02-06T22:48:41.385Z,81.00
2019-02-06T22:50:48.065Z,81.58
2019-02-06T22:52:54.846Z,81.05
2019-02-06T22:55:01.507Z,81.07
2019-02-06T22:57:08.426Z,81.34
2019-02-06T22:59:22.507Z,81.22
2019-02-06T23:01:37.905Z,80.71
2019-02-06T23:03:45.185Z,80.72
2019-02-06T23:05:53.046Z,80.83
2019-02-06T23:08:00.142Z,81.01
2019-02-06T23:10:10.045Z,81.68
2019-02-06T23:12:18.022Z,81.19
2019-02-06T23:14:27.782Z,81.05
2019-02-06T23:16:34.495Z,81.52
2019-02-06T23:18:42.035Z,80.94
2019-02-06T23:20:48.782Z,80.89
2019-02-06T23:22:57.160Z,80.60
2019-02-06T23:25:03.973Z,80.92
2019-02-06T23:27:12.343Z,81.21
2019-02-06T23:29:19.460Z,80.94
2019-02-06T23:31:38.939Z,80.99
2019-02-06T23:33:47.077Z,80.96
2019-02-06T23:35:55.346Z,80.82
2019-02-06T23:38:07.945Z,80.70
2019-02-06T23:40:19.341Z,80.67
2019-02-06T23:42:26.225Z,80.92
2019-02-06T23:44:33.965Z,81.22
2019-02-06T23:46:42.064Z,81.03
2019-02-06T23:48:49.084Z,80.92
2019-02-06T23:50:56.230Z,81.06
2019-02-06T23:53:04.624Z,81.30
2019-02-06T23:55:11.809Z,81.13
2019-02-06T23:57:20.013Z,81.22
2019-02-06T23:59:27.430Z,81.49
